createdAt,value
2022-09-28T00:00:18.343Z,0
2022-09-28T00:01:34.632Z,0
2022-09-28T00:02:50.944Z,0
2022-09-28T00:04:07.235Z,0
2022-09-28T00:05:23.524Z,0
2022-09-28T00:06:39.824Z,0
2022-09-28T00:07:56.115Z,0
2022-09-28T00:09:11.419Z,0
2022-09-28T00:10:27.709Z,0
2022-09-28T00:11:44.014Z,0
2022-09-28T00:13:00.311Z,0
2022-09-28T00:14:16.594Z,0
2022-09-28T00:15:32.904Z,0
2022-09-28T00:16:49.179Z,0
2022-09-28T00:18:05.485Z,0
2022-09-28T00:19:21.776Z,0
2022-09-28T00:20:38.068Z,0
2022-09-28T00:21:54.373Z,0
2022-09-28T00:23:10.668Z,0
2022-09-28T00:24:26.958Z,0
2022-09-28T00:25:42.257Z,0
2022-09-28T00:26:58.554Z,0
2022-09-28T00:28:14.864Z,0
2022-09-28T00:29:31.139Z,0
2022-09-28T00:30:47.438Z,0
2022-09-28T00:32:03.735Z,0
2022-09-28T00:33:20.038Z,0
2022-09-28T00:34:36.329Z,0
2022-09-28T00:35:52.627Z,0
2022-09-28T00:37:08.913Z,0
2022-09-28T00:38:25.205Z,0
2022-09-28T00:39:41.505Z,0
2022-09-28T00:40:57.798Z,0
2022-09-28T00:42:13.100Z,0
2022-09-28T00:43:29.394Z,0
2022-09-28T00:44:45.701Z,0
2022-09-28T00:46:01.985Z,0
2022-09-28T00:47:18.284Z,0
2022-09-28T00:48:34.583Z,0
2022-09-28T00:49:50.875Z,0
2022-09-28T00:51:07.159Z,0
2022-09-28T00:52:23.471Z,0
2022-09-28T00:53:39.750Z,0
2022-09-28T00:54:56.048Z,0
2022-09-28T00:56:12.340Z,0
2022-09-28T00:57:28.632Z,0
2022-09-28T00:58:43.957Z,0
2022-09-28T01:00:00.240Z,0
2022-09-28T01:01:16.538Z,0
2022-09-28T01:02:32.841Z,0
2022-09-28T01:03:49.119Z,0
2022-09-28T01:05:05.415Z,0
2022-09-28T01:06:21.722Z,0
2022-09-28T01:07:38.007Z,0
2022-09-28T01:08:54.296Z,0
2022-09-28T01:10:10.596Z,0
2022-09-28T01:11:26.891Z,0
2022-09-28T01:12:43.181Z,0
2022-09-28T01:13:59.480Z,0
2022-09-28T01:15:14.796Z,0
2022-09-28T01:16:31.088Z,0
2022-09-28T01:17:47.380Z,0
2022-09-28T01:19:03.679Z,0
2022-09-28T01:20:19.977Z,0
2022-09-28T01:21:36.257Z,0
2022-09-28T01:22:52.568Z,0
2022-09-28T01:24:08.848Z,0
2022-09-28T01:25:25.154Z,0
2022-09-28T01:27:57.730Z,0
2022-09-28T01:29:14.022Z,0
2022-09-28T01:30:30.319Z,0
2022-09-28T01:31:45.645Z,0
2022-09-28T01:33:01.927Z,0
2022-09-28T01:34:18.234Z,0
2022-09-28T01:35:34.528Z,0
2022-09-28T01:36:50.819Z,0
2022-09-28T01:38:07.115Z,0
2022-09-28T01:39:23.404Z,0
2022-09-28T01:40:39.698Z,0
2022-09-28T01:43:12.278Z,0
2022-09-28T01:44:28.572Z,0
2022-09-28T01:45:44.864Z,0
2022-09-28T01:47:01.168Z,0
2022-09-28T01:48:16.482Z,0
2022-09-28T01:49:32.769Z,0
2022-09-28T01:50:49.063Z,0
2022-09-28T01:52:05.356Z,0
2022-09-28T01:53:21.645Z,0
2022-09-28T01:54:37.951Z,0
2022-09-28T01:55:54.245Z,0
2022-09-28T01:57:10.537Z,0
2022-09-28T01:58:26.838Z,0
2022-09-28T01:59:43.116Z,0
2022-09-28T02:00:59.423Z,0
2022-09-28T02:02:15.724Z,0
2022-09-28T02:03:32.013Z,0
2022-09-28T02:04:48.304Z,0
2022-09-28T02:06:03.617Z,0
2022-09-28T02:07:19.914Z,0
2022-09-28T02:08:36.192Z,0
2022-09-28T02:09:52.487Z,0
2022-09-28T02:11:08.781Z,0
2022-09-28T02:13:41.379Z,0
2022-09-28T02:14:57.675Z,0
2022-09-28T02:16:13.968Z,0
2022-09-28T02:17:30.265Z,0
2022-09-28T02:18:46.554Z,0
2022-09-28T02:20:02.854Z,0
2022-09-28T02:21:19.148Z,0
2022-09-28T02:22:34.447Z,0
2022-09-28T02:23:50.747Z,0
2022-09-28T02:25:07.049Z,0
2022-09-28T02:26:23.351Z,0
2022-09-28T02:27:39.628Z,0
2022-09-28T02:28:55.935Z,0
2022-09-28T02:30:12.221Z,0
2022-09-28T02:31:28.519Z,0
2022-09-28T02:32:44.809Z,0
2022-09-28T02:34:01.101Z,0
2022-09-28T02:36:33.700Z,0
2022-09-28T02:37:49.996Z,0
2022-09-28T02:39:05.290Z,0
2022-09-28T02:40:21.586Z,0
2022-09-28T02:41:37.898Z,0
2022-09-28T02:42:54.176Z,0
2022-09-28T02:44:10.479Z,0
2022-09-28T02:45:26.777Z,0
2022-09-28T02:46:43.066Z,0
2022-09-28T02:47:59.352Z,0
2022-09-28T02:49:15.653Z,0
2022-09-28T02:50:31.959Z,0
2022-09-28T02:51:48.255Z,0
2022-09-28T02:53:04.530Z,0
2022-09-28T02:54:20.836Z,0
2022-09-28T02:55:37.124Z,0
2022-09-28T02:56:52.428Z,0
2022-09-28T02:58:08.732Z,0
2022-09-28T02:59:25.017Z,0
2022-09-28T03:00:41.315Z,0
2022-09-28T03:01:57.625Z,0
2022-09-28T03:03:13.918Z,0
2022-09-28T03:04:30.207Z,0
2022-09-28T03:05:46.502Z,0
2022-09-28T03:07:02.787Z,0
2022-09-28T03:08:19.093Z,0
2022-09-28T03:09:35.389Z,0
2022-09-28T03:10:51.674Z,0
2022-09-28T03:12:07.976Z,0
2022-09-28T03:13:23.279Z,0
2022-09-28T03:14:39.582Z,0
2022-09-28T03:15:55.870Z,0
2022-09-28T03:17:12.177Z,0
2022-09-28T03:18:28.462Z,0
2022-09-28T03:19:44.749Z,0
2022-09-28T03:21:01.061Z,0
2022-09-28T03:22:17.355Z,0
2022-09-28T03:23:32.668Z,0
2022-09-28T03:24:48.954Z,0
2022-09-28T03:26:05.246Z,0
2022-09-28T03:27:21.549Z,0
2022-09-28T03:29:54.128Z,0
2022-09-28T03:31:10.428Z,0
2022-09-28T03:32:26.713Z,0
2022-09-28T03:33:43.025Z,0
2022-09-28T03:34:59.300Z,0
2022-09-28T03:36:15.612Z,0
2022-09-28T03:37:31.890Z,0
2022-09-28T03:38:48.203Z,0
2022-09-28T03:40:03.507Z,0
2022-09-28T03:41:19.791Z,0
2022-09-28T03:42:36.101Z,0
2022-09-28T03:43:52.378Z,0
2022-09-28T03:45:08.685Z,0
2022-09-28T03:46:24.976Z,0
2022-09-28T03:47:41.266Z,0
2022-09-28T03:48:57.573Z,0
2022-09-28T03:50:13.871Z,0
2022-09-28T03:51:30.160Z,0
2022-09-28T03:52:46.453Z,0
2022-09-28T03:54:02.747Z,0
2022-09-28T03:55:19.040Z,0
2022-09-28T03:56:34.348Z,0
2022-09-28T03:57:50.639Z,0
2022-09-28T04:00:23.239Z,0
2022-09-28T04:01:39.528Z,0
2022-09-28T04:02:55.817Z,0
2022-09-28T04:04:12.110Z,0
2022-09-28T04:05:28.410Z,0
2022-09-28T04:06:44.701Z,0
2022-09-28T04:08:01.003Z,0
2022-09-28T04:09:17.284Z,0
2022-09-28T04:10:33.591Z,0
2022-09-28T04:11:49.892Z,0
2022-09-28T04:13:05.189Z,0
2022-09-28T04:15:37.784Z,0
2022-09-28T04:16:54.086Z,0
2022-09-28T04:18:10.369Z,0
2022-09-28T04:19:26.664Z,0
2022-09-28T04:20:42.959Z,0
2022-09-28T04:21:59.249Z,0
2022-09-28T04:23:15.544Z,0
2022-09-28T04:24:31.851Z,0
2022-09-28T04:25:48.139Z,0
2022-09-28T04:28:20.677Z,0
2022-09-28T04:29:35.977Z,0
2022-09-28T04:30:52.240Z,1
2022-09-28T04:32:08.473Z,1
2022-09-28T04:33:24.718Z,1
2022-09-28T04:34:41.006Z,0
2022-09-28T04:35:57.253Z,2
2022-09-28T04:37:13.508Z,1
2022-09-28T04:38:29.787Z,0
2022-09-28T04:39:46.102Z,0
2022-09-28T04:41:02.351Z,3
2022-09-28T04:43:34.829Z,5
2022-09-28T04:44:51.070Z,2
2022-09-28T04:46:06.326Z,2
2022-09-28T04:47:22.564Z,5
2022-09-28T04:48:38.799Z,8
2022-09-28T04:49:55.037Z,8
2022-09-28T04:51:11.275Z,12
2022-09-28T04:52:27.532Z,13
2022-09-28T04:53:43.768Z,11
2022-09-28T04:55:00.008Z,11
2022-09-28T04:56:16.248Z,15
2022-09-28T04:57:32.489Z,22
2022-09-28T04:58:48.733Z,29
2022-09-28T05:00:04.969Z,34
2022-09-28T05:01:21.199Z,42
2022-09-28T05:02:37.441Z,49
2022-09-28T05:03:52.704Z,58
2022-09-28T05:05:08.941Z,66
2022-09-28T05:06:25.187Z,74
2022-09-28T05:08:57.655Z,87
2022-09-28T05:10:13.912Z,105
2022-09-28T05:11:30.147Z,85
2022-09-28T05:14:02.616Z,140
2022-09-28T05:16:35.105Z,145
2022-09-28T05:17:50.365Z,144
2022-09-28T05:19:05.623Z,154
2022-09-28T05:20:21.858Z,176
2022-09-28T05:21:38.101Z,178
2022-09-28T05:22:54.349Z,179
2022-09-28T05:24:10.578Z,184
2022-09-28T05:26:43.065Z,198
2022-09-28T05:27:59.303Z,207
2022-09-28T05:29:15.543Z,217
2022-09-28T05:30:31.786Z,231
2022-09-28T05:31:48.036Z,240
2022-09-28T05:33:04.264Z,248
2022-09-28T05:34:20.511Z,255
2022-09-28T05:35:35.776Z,259
2022-09-28T05:36:52.005Z,267
2022-09-28T05:38:08.247Z,277
2022-09-28T05:39:24.497Z,274
2022-09-28T05:40:40.725Z,277
2022-09-28T05:41:56.978Z,287
2022-09-28T05:43:13.201Z,309
2022-09-28T05:44:29.456Z,322
2022-09-28T05:45:44.705Z,336
2022-09-28T05:46:59.979Z,359
2022-09-28T05:48:16.214Z,387
2022-09-28T05:49:32.452Z,427
2022-09-28T05:50:48.698Z,466
2022-09-28T05:53:21.167Z,509
2022-09-28T05:54:37.416Z,511
2022-09-28T05:55:53.660Z,496
2022-09-28T05:57:09.898Z,485
2022-09-28T05:58:26.137Z,481
2022-09-28T05:59:42.366Z,472
2022-09-28T06:02:14.848Z,457
2022-09-28T06:03:30.109Z,464
2022-09-28T06:04:45.367Z,487
2022-09-28T06:06:01.611Z,514
2022-09-28T06:07:17.847Z,548
2022-09-28T06:08:34.098Z,579
2022-09-28T06:09:50.333Z,599
2022-09-28T06:11:06.569Z,619
2022-09-28T06:12:22.820Z,638
2022-09-28T06:13:39.048Z,655
2022-09-28T06:14:55.301Z,661
2022-09-28T06:16:11.537Z,654
2022-09-28T06:17:27.768Z,636
2022-09-28T06:18:44.028Z,620
2022-09-28T06:19:59.274Z,608
2022-09-28T06:21:14.544Z,593
2022-09-28T06:22:30.776Z,569
2022-09-28T06:25:03.252Z,509
2022-09-28T06:26:19.497Z,489
2022-09-28T06:27:35.747Z,476
2022-09-28T06:28:51.974Z,466
2022-09-28T06:30:08.224Z,465
2022-09-28T06:31:24.449Z,460
2022-09-28T06:32:40.694Z,449
2022-09-28T06:33:56.941Z,423
2022-09-28T06:35:13.185Z,396
2022-09-28T06:36:29.000Z,384
2022-09-28T06:37:45.671Z,365
2022-09-28T06:39:00.914Z,356
2022-09-28T06:40:17.154Z,340
2022-09-28T06:41:33.390Z,341
2022-09-28T06:44:05.884Z,393
2022-09-28T06:45:22.119Z,439
2022-09-28T06:46:37.380Z,462
2022-09-28T06:47:52.638Z,479
2022-09-28T06:49:08.871Z,499
2022-09-28T06:50:25.126Z,529
2022-09-28T06:51:41.362Z,555
2022-09-28T06:52:57.605Z,581
2022-09-28T06:54:13.836Z,595
2022-09-28T06:55:30.097Z,613
2022-09-28T06:56:46.316Z,653
2022-09-28T06:58:02.551Z,709
2022-09-28T06:59:18.805Z,775
2022-09-28T07:00:35.049Z,822
2022-09-28T07:01:50.298Z,822
2022-09-28T07:03:05.549Z,760
2022-09-28T07:04:21.802Z,684
2022-09-28T07:05:38.039Z,660
2022-09-28T07:10:43.002Z,722
2022-09-28T07:11:59.240Z,758
2022-09-28T07:13:15.494Z,788
2022-09-28T07:14:31.726Z,854
2022-09-28T07:15:47.955Z,951
2022-09-28T07:17:04.208Z,1060
2022-09-28T07:18:20.446Z,1110
2022-09-28T07:19:35.712Z,1097
2022-09-28T07:20:50.973Z,1082
2022-09-28T07:22:07.202Z,1210
2022-09-28T07:23:23.448Z,1324
2022-09-28T07:25:55.918Z,1215
2022-09-28T07:27:12.164Z,1170
2022-09-28T07:28:28.414Z,1120
2022-09-28T07:29:44.638Z,1061
2022-09-28T07:31:00.880Z,1161
2022-09-28T07:32:17.126Z,1150
2022-09-28T07:33:33.376Z,1168
2022-09-28T07:34:49.611Z,1285
2022-09-28T07:36:05.842Z,1395
2022-09-28T07:37:21.114Z,1490
2022-09-28T07:38:37.355Z,1634
2022-09-28T07:39:52.609Z,1774
2022-09-28T07:41:08.855Z,1662
2022-09-28T07:42:25.080Z,1569
2022-09-28T07:43:41.334Z,1514
2022-09-28T07:44:57.573Z,1256
2022-09-28T07:46:13.804Z,1177
2022-09-28T07:47:30.044Z,1563
2022-09-28T07:48:45.303Z,2017
2022-09-28T07:50:00.560Z,2129
2022-09-28T07:51:16.809Z,2005
2022-09-28T07:52:33.054Z,2073
2022-09-28T07:53:49.284Z,2238
2022-09-28T07:55:05.528Z,2381
2022-09-28T07:56:21.772Z,2497
2022-09-28T07:57:38.002Z,2388
2022-09-28T07:58:54.245Z,2526
2022-09-28T08:00:10.499Z,2460
2022-09-28T08:01:26.721Z,2895
2022-09-28T08:02:42.966Z,2752
2022-09-28T08:03:59.211Z,3167
2022-09-28T08:05:15.458Z,2931
2022-09-28T08:06:30.714Z,2985
2022-09-28T08:07:46.957Z,3123
2022-09-28T08:09:03.181Z,2863
2022-09-28T08:10:19.420Z,3164
2022-09-28T08:11:35.668Z,3164
2022-09-28T08:12:51.917Z,3309
2022-09-28T08:14:08.152Z,2905
2022-09-28T08:15:24.391Z,3072
2022-09-28T08:16:40.632Z,3018
2022-09-28T08:19:13.117Z,2784
2022-09-28T08:20:29.354Z,2742
2022-09-28T08:21:45.587Z,2876
2022-09-28T08:23:00.844Z,3475
2022-09-28T08:24:17.090Z,2140
2022-09-28T08:26:49.568Z,3013
2022-09-28T08:28:05.811Z,1773
2022-09-28T08:29:22.049Z,2135
2022-09-28T08:30:38.290Z,2641
2022-09-28T08:31:54.523Z,2772
2022-09-28T08:34:27.018Z,2245
2022-09-28T08:35:42.273Z,1754
2022-09-28T08:36:58.503Z,1305
2022-09-28T08:38:13.773Z,2161
2022-09-28T08:39:29.996Z,2570
2022-09-28T08:42:02.482Z,2176
2022-09-28T08:43:18.721Z,2216
2022-09-28T08:44:34.978Z,2112
2022-09-28T08:45:51.218Z,2125
2022-09-28T08:47:07.449Z,2612
2022-09-28T08:49:39.938Z,2234
2022-09-28T08:50:56.168Z,2159
2022-09-28T08:52:11.423Z,2136
2022-09-28T08:53:26.684Z,1394
2022-09-28T08:54:42.917Z,1773
2022-09-28T08:55:59.176Z,1571
2022-09-28T08:57:15.412Z,1091
2022-09-28T08:58:31.645Z,1013
2022-09-28T08:59:47.886Z,1906
2022-09-28T09:01:04.121Z,1445
2022-09-28T09:02:20.373Z,1697
2022-09-28T09:03:36.604Z,1505
2022-09-28T09:04:52.851Z,1663
2022-09-28T09:06:08.106Z,1639
2022-09-28T09:08:39.613Z,1644
2022-09-28T09:09:55.840Z,1579
2022-09-28T09:12:28.329Z,1667
2022-09-28T09:13:44.562Z,1764
2022-09-28T09:15:00.809Z,1922
2022-09-28T09:16:17.055Z,1960
2022-09-28T09:17:33.293Z,2033
2022-09-28T09:18:49.538Z,2226
2022-09-28T09:20:05.771Z,2270
2022-09-28T09:21:22.000Z,2332
2022-09-28T09:22:38.241Z,2388
2022-09-28T09:23:53.517Z,2557
2022-09-28T09:25:09.754Z,2757
2022-09-28T09:27:42.221Z,2893
2022-09-28T09:28:57.486Z,2924
2022-09-28T09:30:12.738Z,2920
2022-09-28T09:31:28.978Z,2881
2022-09-28T09:32:45.231Z,2905
2022-09-28T09:35:17.702Z,3121
2022-09-28T09:36:33.943Z,3416
2022-09-28T09:37:50.193Z,3756
2022-09-28T09:39:06.420Z,4032
2022-09-28T09:40:22.664Z,4283
2022-09-28T09:42:55.159Z,4476
2022-09-28T09:44:11.390Z,4552
2022-09-28T09:45:27.639Z,4465
2022-09-28T09:46:42.880Z,4234
2022-09-28T09:47:59.118Z,4084
2022-09-28T09:49:15.358Z,4033
2022-09-28T09:50:31.613Z,3985
2022-09-28T09:51:47.852Z,3961
2022-09-28T09:53:04.081Z,3901
2022-09-28T09:54:20.330Z,3830
2022-09-28T09:55:36.568Z,3819
2022-09-28T09:56:52.804Z,3888
2022-09-28T09:58:09.039Z,4042
2022-09-28T09:59:25.280Z,4106
2022-09-28T10:00:41.531Z,4166
2022-09-28T10:01:56.785Z,4152
2022-09-28T10:03:12.043Z,4105
2022-09-28T10:04:28.287Z,4068
2022-09-28T10:05:44.534Z,4048
2022-09-28T10:07:00.779Z,4076
2022-09-28T10:08:17.018Z,4165
2022-09-28T10:09:33.240Z,4296
2022-09-28T10:10:49.490Z,4493
2022-09-28T10:12:05.721Z,4764
2022-09-28T10:13:21.975Z,5058
2022-09-28T10:14:38.206Z,5299
2022-09-28T10:15:53.463Z,5511
2022-09-28T10:17:08.737Z,5729
2022-09-28T10:18:24.970Z,5941
2022-09-28T10:19:41.201Z,6217
2022-09-28T10:20:57.459Z,6595
2022-09-28T10:22:13.682Z,7030
2022-09-28T10:23:29.923Z,7365
2022-09-28T10:24:46.165Z,7547
2022-09-28T10:26:02.413Z,7510
2022-09-28T10:27:18.652Z,7378
2022-09-28T10:28:34.886Z,7255
2022-09-28T10:29:51.127Z,7273
2022-09-28T10:31:07.376Z,7505
2022-09-28T10:32:23.604Z,7699
2022-09-28T10:33:38.876Z,7626
2022-09-28T10:36:11.356Z,7060
2022-09-28T10:37:27.590Z,6439
2022-09-28T10:38:43.818Z,5493
2022-09-28T10:40:00.075Z,4619
2022-09-28T10:41:16.304Z,4339
2022-09-28T10:43:48.780Z,4746
2022-09-28T10:45:05.031Z,4906
2022-09-28T10:46:21.267Z,5055
2022-09-28T10:47:37.509Z,5201
2022-09-28T10:48:53.751Z,5270
2022-09-28T10:50:08.999Z,5168
2022-09-28T10:51:25.245Z,5002
2022-09-28T10:52:41.484Z,4939
2022-09-28T10:53:57.724Z,4994
2022-09-28T10:55:13.975Z,5051
2022-09-28T10:56:30.210Z,5030
2022-09-28T10:57:46.453Z,4983
2022-09-28T10:59:02.681Z,4831
2022-09-28T11:00:18.921Z,4715
2022-09-28T11:01:35.165Z,4789
2022-09-28T11:02:51.415Z,5032
2022-09-28T11:04:07.657Z,5223
2022-09-28T11:05:23.892Z,5321
2022-09-28T11:06:40.134Z,5435
2022-09-28T11:07:55.395Z,5635
2022-09-28T11:09:11.626Z,5852
2022-09-28T11:10:27.872Z,6065
2022-09-28T11:11:44.100Z,6334
2022-09-28T11:13:00.348Z,6643
2022-09-28T11:14:16.593Z,6818
2022-09-28T11:15:32.835Z,6907
2022-09-28T11:16:49.065Z,6825
2022-09-28T11:18:05.312Z,6632
2022-09-28T11:19:21.557Z,6406
2022-09-28T11:21:54.018Z,6158
2022-09-28T11:23:10.266Z,6064
2022-09-28T11:24:25.531Z,5846
2022-09-28T11:25:41.770Z,5673
2022-09-28T11:26:57.997Z,5532
2022-09-28T11:28:14.241Z,5559
2022-09-28T11:29:30.484Z,5496
2022-09-28T11:30:46.724Z,5417
2022-09-28T11:32:02.963Z,5263
2022-09-28T11:33:19.210Z,5059
2022-09-28T11:34:35.444Z,4787
2022-09-28T11:35:51.696Z,4460
2022-09-28T11:37:07.928Z,4374
2022-09-28T11:38:24.178Z,4275
2022-09-28T11:39:40.401Z,3774
2022-09-28T11:40:55.674Z,3207
2022-09-28T11:42:11.914Z,2818
2022-09-28T11:44:44.394Z,2922
2022-09-28T11:46:00.631Z,2998
2022-09-28T11:47:16.871Z,3241
2022-09-28T11:48:33.115Z,4282
2022-09-28T11:49:49.351Z,4919
2022-09-28T11:51:05.596Z,5451
2022-09-28T11:52:21.832Z,5605
2022-09-28T11:53:38.071Z,4464
2022-09-28T11:54:53.329Z,3371
2022-09-28T11:56:09.570Z,4700
2022-09-28T11:57:25.811Z,5620
2022-09-28T11:58:42.039Z,5543
2022-09-28T11:59:58.294Z,5031
2022-09-28T12:01:14.536Z,4549
2022-09-28T12:02:30.777Z,4850
2022-09-28T12:05:03.260Z,5616
2022-09-28T12:06:19.493Z,5885
2022-09-28T12:07:35.727Z,6241
2022-09-28T12:08:51.975Z,6636
2022-09-28T12:10:08.213Z,7232
2022-09-28T12:11:23.473Z,7592
2022-09-28T12:12:39.706Z,7146
2022-09-28T12:13:55.947Z,7553
2022-09-28T12:15:12.189Z,7895
2022-09-28T12:16:28.428Z,7779
2022-09-28T12:17:44.669Z,7668
2022-09-28T12:20:17.151Z,7965
2022-09-28T12:21:33.397Z,7349
2022-09-28T12:22:49.624Z,6781
2022-09-28T12:24:05.876Z,6989
2022-09-28T12:25:22.103Z,7971
2022-09-28T12:26:38.351Z,7165
2022-09-28T12:27:53.613Z,7482
2022-09-28T12:29:09.843Z,7505
2022-09-28T12:30:26.087Z,6212
2022-09-28T12:31:42.319Z,6830
2022-09-28T12:32:58.573Z,6771
2022-09-28T12:34:14.809Z,7278
2022-09-28T12:35:31.058Z,7453
2022-09-28T12:36:47.296Z,8500
2022-09-28T12:38:03.522Z,7680
2022-09-28T12:39:19.766Z,6477
2022-09-28T12:40:36.005Z,5611
2022-09-28T12:41:52.250Z,5486
2022-09-28T12:43:08.497Z,4969
2022-09-28T12:45:39.996Z,7285
2022-09-28T12:46:56.233Z,6448
2022-09-28T12:48:12.458Z,5902
2022-09-28T12:49:28.716Z,5115
2022-09-28T12:50:44.949Z,5967
2022-09-28T12:52:01.179Z,6938
2022-09-28T12:53:17.422Z,6837
2022-09-28T12:54:33.660Z,6716
2022-09-28T12:55:49.903Z,7233
2022-09-28T12:58:22.384Z,7385
2022-09-28T12:59:38.621Z,6736
2022-09-28T13:00:53.882Z,6287
2022-09-28T13:02:10.128Z,6921
2022-09-28T13:03:26.358Z,6394
2022-09-28T13:05:58.845Z,5220
2022-09-28T13:08:30.000Z,4078
2022-09-28T13:09:45.611Z,3354
2022-09-28T13:11:00.865Z,4275
2022-09-28T13:12:17.108Z,4358
2022-09-28T13:13:33.334Z,3730
2022-09-28T13:14:49.573Z,3920
2022-09-28T13:16:05.815Z,4263
2022-09-28T13:18:38.314Z,2853
2022-09-28T13:19:54.544Z,2284
2022-09-28T13:21:10.781Z,2435
2022-09-28T13:22:27.019Z,2962
2022-09-28T13:23:43.269Z,2562
2022-09-28T13:24:59.503Z,2212
2022-09-28T13:26:15.754Z,1897
2022-09-28T13:27:30.991Z,1312
2022-09-28T13:28:47.250Z,1195
2022-09-28T13:30:03.481Z,1218
2022-09-28T13:31:19.722Z,2300
2022-09-28T13:32:35.951Z,3214
2022-09-28T13:33:52.206Z,4013
2022-09-28T13:36:24.679Z,6484
2022-09-28T13:38:57.166Z,6454
2022-09-28T13:40:12.424Z,6285
2022-09-28T13:41:27.686Z,5805
2022-09-28T13:42:43.910Z,5180
2022-09-28T13:44:00.166Z,5212
2022-09-28T13:45:16.403Z,5484
2022-09-28T13:46:32.638Z,4681
2022-09-28T13:47:48.886Z,3904
2022-09-28T13:49:05.112Z,3671
2022-09-28T13:50:21.360Z,3807
2022-09-28T13:51:37.600Z,4261
2022-09-28T13:52:53.841Z,4770
2022-09-28T13:54:09.103Z,4506
2022-09-28T13:55:25.346Z,4550
2022-09-28T13:56:40.601Z,4626
2022-09-28T13:57:56.830Z,4326
2022-09-28T13:59:13.078Z,3586
2022-09-28T14:00:29.323Z,3616
2022-09-28T14:01:45.558Z,3492
2022-09-28T14:03:01.801Z,3717
2022-09-28T14:04:18.036Z,4390
2022-09-28T14:05:34.286Z,4544
2022-09-28T14:06:50.521Z,4286
2022-09-28T14:09:23.008Z,3539
2022-09-28T14:10:39.245Z,4100
2022-09-28T14:11:55.487Z,4254
2022-09-28T14:13:10.734Z,4839
2022-09-28T14:14:26.975Z,5769
2022-09-28T14:15:43.214Z,6260
2022-09-28T14:16:59.445Z,5187
2022-09-28T14:19:31.940Z,3658
2022-09-28T14:22:04.403Z,3274
2022-09-28T14:23:19.680Z,3489
2022-09-28T14:24:35.915Z,4361
2022-09-28T14:25:51.161Z,4612
2022-09-28T14:27:07.406Z,4998
2022-09-28T14:29:39.895Z,4669
2022-09-28T14:30:56.131Z,4825
2022-09-28T14:32:12.378Z,4010
2022-09-28T14:33:28.606Z,3221
2022-09-28T14:34:44.843Z,2790
2022-09-28T14:36:01.093Z,2523
2022-09-28T14:37:17.326Z,2403
2022-09-28T14:38:33.569Z,2414
2022-09-28T14:39:49.813Z,2393
2022-09-28T14:41:06.043Z,2405
2022-09-28T14:42:21.311Z,2477
2022-09-28T14:43:37.558Z,2677
2022-09-28T14:44:53.781Z,2732
2022-09-28T14:46:10.030Z,2505
2022-09-28T14:47:26.271Z,2408
2022-09-28T14:48:42.513Z,2372
2022-09-28T14:49:58.755Z,2504
2022-09-28T14:52:30.243Z,3078
2022-09-28T14:55:01.738Z,2719
2022-09-28T14:56:17.985Z,3187
2022-09-28T14:57:34.233Z,3515
2022-09-28T15:00:06.707Z,3182
2022-09-28T15:02:39.183Z,2898
2022-09-28T15:03:55.435Z,2810
2022-09-28T15:05:11.680Z,2898
2022-09-28T15:06:27.913Z,3670
2022-09-28T15:07:44.156Z,3772
2022-09-28T15:09:00.391Z,3573
2022-09-28T15:10:15.651Z,3459
2022-09-28T15:11:31.887Z,3694
2022-09-28T15:12:48.119Z,3567
2022-09-28T15:14:04.375Z,2999
2022-09-28T15:15:20.603Z,2457
2022-09-28T15:17:53.083Z,2327
2022-09-28T15:19:09.331Z,2446
2022-09-28T15:20:25.563Z,2555
2022-09-28T15:22:58.047Z,2772
2022-09-28T15:24:14.287Z,2764
2022-09-28T15:25:30.525Z,2641
2022-09-28T15:26:45.783Z,2744
2022-09-28T15:28:02.000Z,2720
2022-09-28T15:30:34.500Z,2708
2022-09-28T15:31:50.739Z,2592
2022-09-28T15:33:06.983Z,2613
2022-09-28T15:34:23.233Z,2901
2022-09-28T15:35:39.469Z,2884
2022-09-28T15:36:55.709Z,2893
2022-09-28T15:38:11.956Z,2720
2022-09-28T15:40:44.436Z,2824
2022-09-28T15:42:00.667Z,2450
2022-09-28T15:43:15.935Z,1957
2022-09-28T15:44:32.166Z,1595
2022-09-28T15:45:48.406Z,1435
2022-09-28T15:47:04.651Z,1381
2022-09-28T15:48:20.885Z,1352
2022-09-28T15:49:37.121Z,1325
2022-09-28T15:50:53.369Z,1303
2022-09-28T15:53:25.843Z,1368
2022-09-28T15:55:58.339Z,1543
2022-09-28T15:57:14.577Z,1655
2022-09-28T15:58:30.820Z,1710
2022-09-28T16:01:02.314Z,1865
2022-09-28T16:02:18.537Z,1798
2022-09-28T16:03:34.794Z,1852
2022-09-28T16:04:51.017Z,2039
2022-09-28T16:06:07.268Z,2088
2022-09-28T16:07:23.511Z,1888
2022-09-28T16:08:39.753Z,1691
2022-09-28T16:11:11.252Z,1412
2022-09-28T16:12:26.511Z,1282
2022-09-28T16:13:42.745Z,1184
2022-09-28T16:14:58.985Z,1120
2022-09-28T16:16:15.223Z,1076
2022-09-28T16:17:31.462Z,1055
2022-09-28T16:18:47.709Z,1061
2022-09-28T16:20:03.956Z,1055
2022-09-28T16:21:20.181Z,1022
2022-09-28T16:22:36.438Z,963
2022-09-28T16:23:52.664Z,914
2022-09-28T16:26:25.156Z,849
2022-09-28T16:27:41.385Z,817
2022-09-28T16:28:56.647Z,785
2022-09-28T16:30:12.895Z,751
2022-09-28T16:31:29.137Z,716
2022-09-28T16:34:01.612Z,671
2022-09-28T16:35:17.844Z,640
2022-09-28T16:36:34.097Z,615
2022-09-28T16:37:50.342Z,587
2022-09-28T16:39:06.568Z,562
2022-09-28T16:41:39.050Z,504
2022-09-28T16:42:55.295Z,469
2022-09-28T16:44:11.538Z,436
2022-09-28T16:45:27.781Z,399
2022-09-28T16:46:44.016Z,367
2022-09-28T16:47:59.273Z,337
2022-09-28T16:49:15.506Z,310
2022-09-28T16:50:31.749Z,284
2022-09-28T16:51:47.992Z,255
2022-09-28T16:53:04.232Z,228
2022-09-28T16:54:20.467Z,208
2022-09-28T16:55:36.701Z,184
2022-09-28T16:56:52.957Z,162
2022-09-28T16:58:09.197Z,142
2022-09-28T16:59:25.445Z,122
2022-09-28T17:00:40.700Z,104
2022-09-28T17:01:56.946Z,88
2022-09-28T17:04:28.425Z,62
2022-09-28T17:07:00.918Z,43
2022-09-28T17:08:17.145Z,36
2022-09-28T17:09:33.392Z,35
2022-09-28T17:12:05.880Z,22
2022-09-28T17:14:38.345Z,11
2022-09-28T17:15:54.587Z,11
2022-09-28T17:17:10.838Z,9
2022-09-28T17:19:43.323Z,3
2022-09-28T17:20:59.694Z,3
2022-09-28T17:22:14.961Z,2
2022-09-28T17:23:31.185Z,2
2022-09-28T17:24:47.445Z,1
2022-09-28T17:26:03.679Z,1
2022-09-28T17:27:19.916Z,1
2022-09-28T17:28:36.217Z,0
2022-09-28T17:29:52.496Z,0
2022-09-28T17:31:08.808Z,0
2022-09-28T17:32:25.087Z,0
2022-09-28T17:33:41.380Z,0
2022-09-28T17:34:56.710Z,0
2022-09-28T17:36:13.001Z,0
2022-09-28T17:37:28.318Z,0
2022-09-28T17:38:44.595Z,0
2022-09-28T17:40:00.901Z,0
2022-09-28T17:41:17.187Z,0
2022-09-28T17:42:33.486Z,0
2022-09-28T17:43:49.786Z,0
2022-09-28T17:45:06.065Z,0
2022-09-28T17:46:22.370Z,0
2022-09-28T17:47:38.662Z,0
2022-09-28T17:48:53.971Z,0
2022-09-28T17:50:09.282Z,0
2022-09-28T17:51:25.572Z,0
2022-09-28T17:52:41.874Z,0
2022-09-28T17:53:58.160Z,0
2022-09-28T17:55:14.473Z,0
2022-09-28T17:56:30.769Z,0
2022-09-28T17:57:47.063Z,0
2022-09-28T17:59:03.346Z,0
2022-09-28T18:00:19.657Z,0
2022-09-28T18:01:35.949Z,0
2022-09-28T18:02:52.242Z,0
2022-09-28T18:04:08.531Z,0
2022-09-28T18:05:24.829Z,0
2022-09-28T18:06:40.143Z,0
2022-09-28T18:07:56.428Z,0
2022-09-28T18:10:29.014Z,0
2022-09-28T18:11:45.320Z,0
2022-09-28T18:13:01.609Z,0
2022-09-28T18:14:17.890Z,0
2022-09-28T18:15:34.189Z,0
2022-09-28T18:16:50.496Z,0
2022-09-28T18:18:06.787Z,0
2022-09-28T18:19:23.076Z,0
2022-09-28T18:20:39.370Z,0
2022-09-28T18:21:55.659Z,0
2022-09-28T18:23:10.979Z,0
2022-09-28T18:24:27.261Z,0
2022-09-28T18:25:43.553Z,0
2022-09-28T18:26:59.846Z,0
2022-09-28T18:28:16.161Z,0
2022-09-28T18:29:32.448Z,0
2022-09-28T18:30:48.736Z,0
2022-09-28T18:33:21.338Z,0
2022-09-28T18:35:53.924Z,0
2022-09-28T18:37:09.236Z,0
2022-09-28T18:38:24.538Z,0
2022-09-28T18:39:40.848Z,0
2022-09-28T18:40:57.129Z,0
2022-09-28T18:42:13.423Z,0
2022-09-28T18:43:29.730Z,0
2022-09-28T18:44:46.018Z,0
2022-09-28T18:46:02.301Z,0
2022-09-28T18:47:18.608Z,0
2022-09-28T18:48:34.888Z,0
2022-09-28T18:49:51.192Z,0
2022-09-28T18:51:06.500Z,0
2022-09-28T18:52:21.818Z,0
2022-09-28T18:53:38.102Z,0
2022-09-28T18:54:54.412Z,0
2022-09-28T18:56:10.704Z,0
2022-09-28T18:57:26.993Z,0
2022-09-28T18:59:59.575Z,0
2022-09-28T19:01:15.870Z,0
2022-09-28T19:03:48.456Z,0
2022-09-28T19:05:04.756Z,0
2022-09-28T19:06:21.047Z,0
2022-09-28T19:07:36.371Z,0
2022-09-28T19:08:51.686Z,0
2022-09-28T19:10:07.970Z,0
2022-09-28T19:11:24.275Z,0